sensor_id;sensor_type;location;lat;lon;timestamp;pressure;altitude;pressure_sealevel;temperature;humidity
6464;BME280;3265;42.694;23.282;2023-03-04T00:00:22;94662.88;;;5.94;100.00
6464;BME280;3265;42.694;23.282;2023-03-04T00:02:49;94662.09;;;6.00;100.00
6464;BME280;3265;42.694;23.282;2023-03-04T00:05:17;94651.94;;;5.92;100.00
6464;BME280;3265;42.694;23.282;2023-03-04T00:07:44;94658.94;;;5.98;100.00
6464;BME280;3265;42.694;23.282;2023-03-04T00:10:11;94653.81;;;6.05;100.00
6464;BME280;3265;42.694;23.282;2023-03-04T00:12:38;94656.25;;;6.13;100.00
6464;BME280;3265;42.694;23.282;2023-03-04T00:15:05;94658.06;;;6.19;100.00
6464;BME280;3265;42.694;23.282;2023-03-04T00:17:32;94650.28;;;6.12;100.00
6464;BME280;3265;42.694;23.282;2023-03-04T00:19:59;94650.69;;;6.16;100.00
6464;BME280;3265;42.694;23.282;2023-03-04T00:22:27;94654.50;;;6.20;100.00
6464;BME280;3265;42.694;23.282;2023-03-04T00:24:54;94649.94;;;6.22;100.00
6464;BME280;3265;42.694;23.282;2023-03-04T00:27:20;94644.19;;;6.26;100.00
6464;BME280;3265;42.694;23.282;2023-03-04T00:29:47;94645.63;;;6.29;100.00
6464;BME280;3265;42.694;23.282;2023-03-04T00:32:14;94642.03;;;6.30;100.00
6464;BME280;3265;42.694;23.282;2023-03-04T00:34:42;94627.69;;;6.21;100.00
6464;BME280;3265;42.694;23.282;2023-03-04T00:37:09;94636.69;;;6.32;100.00
6464;BME280;3265;42.694;23.282;2023-03-04T00:39:37;94643.22;;;6.27;100.00
6464;BME280;3265;42.694;23.282;2023-03-04T00:42:04;94640.47;;;6.36;100.00
6464;BME280;3265;42.694;23.282;2023-03-04T00:44:31;94638.50;;;6.38;100.00
6464;BME280;3265;42.694;23.282;2023-03-04T00:46:58;94638.09;;;6.41;100.00
6464;BME280;3265;42.694;23.282;2023-03-04T00:49:25;94635.72;;;6.39;100.00
6464;BME280;3265;42.694;23.282;2023-03-04T00:51:52;94635.50;;;6.34;100.00
6464;BME280;3265;42.694;23.282;2023-03-04T00:54:18;94638.09;;;6.34;100.00
6464;BME280;3265;42.694;23.282;2023-03-04T00:56:47;94633.34;;;6.38;100.00
6464;BME280;3265;42.694;23.282;2023-03-04T00:59:14;94642.06;;;6.37;100.00
6464;BME280;3265;42.694;23.282;2023-03-04T01:01:40;94636.84;;;6.23;100.00
6464;BME280;3265;42.694;23.282;2023-03-04T01:04:07;94639.16;;;6.12;100.00
6464;BME280;3265;42.694;23.282;2023-03-04T01:06:34;94631.34;;;5.99;100.00
6464;BME280;3265;42.694;23.282;2023-03-04T01:09:01;94631.16;;;5.94;100.00
6464;BME280;3265;42.694;23.282;2023-03-04T01:11:27;94634.53;;;6.01;100.00
6464;BME280;3265;42.694;23.282;2023-03-04T01:14:04;94638.13;;;6.00;100.00
6464;BME280;3265;42.694;23.282;2023-03-04T01:16:31;94623.81;;;5.97;100.00
6464;BME280;3265;42.694;23.282;2023-03-04T01:18:58;94619.91;;;6.08;100.00
6464;BME280;3265;42.694;23.282;2023-03-04T01:21:31;94616.91;;;6.04;100.00
6464;BME280;3265;42.694;23.282;2023-03-04T01:24:01;94623.88;;;6.10;100.00
6464;BME280;3265;42.694;23.282;2023-03-04T01:26:27;94616.09;;;5.97;100.00
6464;BME280;3265;42.694;23.282;2023-03-04T01:28:55;94611.00;;;5.83;100.00
6464;BME280;3265;42.694;23.282;2023-03-04T01:31:22;94610.66;;;5.86;100.00
6464;BME280;3265;42.694;23.282;2023-03-04T01:33:49;94619.06;;;6.01;100.00
6464;BME280;3265;42.694;23.282;2023-03-04T01:36:16;94616.16;;;6.10;100.00
6464;BME280;3265;42.694;23.282;2023-03-04T01:38:43;94612.72;;;5.97;100.00
6464;BME280;3265;42.694;23.282;2023-03-04T01:41:11;94613.47;;;5.91;100.00
6464;BME280;3265;42.694;23.282;2023-03-04T01:43:39;94604.72;;;5.92;100.00
6464;BME280;3265;42.694;23.282;2023-03-04T01:46:09;94601.22;;;5.99;100.00
6464;BME280;3265;42.694;23.282;2023-03-04T01:48:40;94601.47;;;6.11;100.00
6464;BME280;3265;42.694;23.282;2023-03-04T01:51:11;94603.47;;;6.15;100.00
6464;BME280;3265;42.694;23.282;2023-03-04T01:53:40;94600.88;;;6.15;100.00
6464;BME280;3265;42.694;23.282;2023-03-04T01:56:13;94591.53;;;6.08;100.00
6464;BME280;3265;42.694;23.282;2023-03-04T01:58:41;94608.59;;;6.09;100.00
6464;BME280;3265;42.694;23.282;2023-03-04T02:01:10;94591.53;;;5.80;100.00
6464;BME280;3265;42.694;23.282;2023-03-04T02:03:37;94595.28;;;5.78;100.00
6464;BME280;3265;42.694;23.282;2023-03-04T02:06:04;94592.16;;;5.82;100.00
6464;BME280;3265;42.694;23.282;2023-03-04T02:08:31;94598.50;;;5.80;100.00
6464;BME280;3265;42.694;23.282;2023-03-04T02:10:58;94592.75;;;5.84;100.00
6464;BME280;3265;42.694;23.282;2023-03-04T02:13:25;94589.84;;;5.87;100.00
6464;BME280;3265;42.694;23.282;2023-03-04T02:15:51;94594.41;;;5.92;100.00
6464;BME280;3265;42.694;23.282;2023-03-04T02:18:22;94599.00;;;5.96;100.00
6464;BME280;3265;42.694;23.282;2023-03-04T02:20:57;94572.28;;;5.76;100.00
6464;BME280;3265;42.694;23.282;2023-03-04T02:23:29;94586.22;;;5.82;100.00
6464;BME280;3265;42.694;23.282;2023-03-04T02:26:14;94589.59;;;5.82;100.00
6464;BME280;3265;42.694;23.282;2023-03-04T02:28:42;94586.13;;;5.68;100.00
6464;BME280;3265;42.694;23.282;2023-03-04T02:31:21;94586.53;;;5.65;100.00
6464;BME280;3265;42.694;23.282;2023-03-04T02:33:48;94584.34;;;5.69;100.00
6464;BME280;3265;42.694;23.282;2023-03-04T02:36:15;94590.50;;;5.68;100.00
6464;BME280;3265;42.694;23.282;2023-03-04T02:38:42;94577.19;;;5.64;100.00
6464;BME280;3265;42.694;23.282;2023-03-04T02:41:11;94584.97;;;5.78;100.00
6464;BME280;3265;42.694;23.282;2023-03-04T02:43:48;94579.06;;;5.84;100.00
6464;BME280;3265;42.694;23.282;2023-03-04T02:46:16;94581.75;;;5.97;100.00
6464;BME280;3265;42.694;23.282;2023-03-04T02:48:43;94571.50;;;5.76;100.00
6464;BME280;3265;42.694;23.282;2023-03-04T02:51:10;94564.41;;;5.50;100.00
6464;BME280;3265;42.694;23.282;2023-03-04T02:53:37;94562.53;;;5.37;100.00
6464;BME280;3265;42.694;23.282;2023-03-04T02:56:04;94562.16;;;5.40;100.00
6464;BME280;3265;42.694;23.282;2023-03-04T02:58:31;94561.19;;;5.41;100.00
6464;BME280;3265;42.694;23.282;2023-03-04T03:00:59;94560.22;;;5.42;100.00
6464;BME280;3265;42.694;23.282;2023-03-04T03:03:26;94561.84;;;5.50;100.00
6464;BME280;3265;42.694;23.282;2023-03-04T03:05:53;94565.25;;;5.57;100.00
6464;BME280;3265;42.694;23.282;2023-03-04T03:08:20;94567.06;;;5.63;100.00
6464;BME280;3265;42.694;23.282;2023-03-04T03:10:47;94572.63;;;5.66;100.00
6464;BME280;3265;42.694;23.282;2023-03-04T03:13:13;94582.88;;;5.60;100.00
6464;BME280;3265;42.694;23.282;2023-03-04T03:15:40;94568.06;;;5.62;100.00
6464;BME280;3265;42.694;23.282;2023-03-04T03:18:09;94574.38;;;5.59;100.00
6464;BME280;3265;42.694;23.282;2023-03-04T03:20:36;94571.44;;;5.62;100.00
6464;BME280;3265;42.694;23.282;2023-03-04T03:23:03;94576.22;;;5.72;100.00
6464;BME280;3265;42.694;23.282;2023-03-04T03:25:30;94580.22;;;5.74;100.00
6464;BME280;3265;42.694;23.282;2023-03-04T03:27:56;94570.53;;;5.77;100.00
6464;BME280;3265;42.694;23.282;2023-03-04T03:30:23;94573.50;;;5.80;100.00
6464;BME280;3265;42.694;23.282;2023-03-04T03:32:50;94577.44;;;5.76;100.00
6464;BME280;3265;42.694;23.282;2023-03-04T03:35:18;94567.91;;;5.70;100.00
6464;BME280;3265;42.694;23.282;2023-03-04T03:37:45;94569.25;;;5.59;100.00
6464;BME280;3265;42.694;23.282;2023-03-04T03:40:14;94568.59;;;5.57;100.00
6464;BME280;3265;42.694;23.282;2023-03-04T03:42:40;94544.53;;;5.44;100.00
6464;BME280;3265;42.694;23.282;2023-03-04T03:45:08;94562.44;;;5.52;100.00
6464;BME280;3265;42.694;23.282;2023-03-04T03:47:35;94567.38;;;5.47;100.00
6464;BME280;3265;42.694;23.282;2023-03-04T03:50:03;94555.97;;;5.35;100.00
6464;BME280;3265;42.694;23.282;2023-03-04T03:52:31;94556.19;;;5.33;100.00
6464;BME280;3265;42.694;23.282;2023-03-04T03:54:58;94556.19;;;5.33;100.00
6464;BME280;3265;42.694;23.282;2023-03-04T03:57:26;94550.97;;;5.27;100.00
6464;BME280;3265;42.694;23.282;2023-03-04T03:59:53;94566.91;;;5.37;100.00
6464;BME280;3265;42.694;23.282;2023-03-04T04:02:20;94540.09;;;5.31;100.00
6464;BME280;3265;42.694;23.282;2023-03-04T04:04:47;94542.66;;;5.31;100.00
6464;BME280;3265;42.694;23.282;2023-03-04T04:07:14;94531.16;;;5.27;100.00
6464;BME280;3265;42.694;23.282;2023-03-04T04:09:43;94544.53;;;5.44;100.00
6464;BME280;3265;42.694;23.282;2023-03-04T04:12:12;94547.72;;;5.46;100.00
6464;BME280;3265;42.694;23.282;2023-03-04T04:14:39;94547.88;;;5.38;100.00
6464;BME280;3265;42.694;23.282;2023-03-04T04:17:06;94543.28;;;5.33;100.00
6464;BME280;3265;42.694;23.282;2023-03-04T04:19:32;94542.28;;;5.34;100.00
6464;BME280;3265;42.694;23.282;2023-03-04T04:21:59;94546.25;;;5.30;100.00
6464;BME280;3265;42.694;23.282;2023-03-04T04:24:26;94546.19;;;5.24;100.00
6464;BME280;3265;42.694;23.282;2023-03-04T04:26:54;94545.41;;;5.23;100.00
6464;BME280;3265;42.694;23.282;2023-03-04T04:29:21;94543.78;;;5.15;100.00
6464;BME280;3265;42.694;23.282;2023-03-04T04:31:48;94544.88;;;5.06;100.00
6464;BME280;3265;42.694;23.282;2023-03-04T04:34:15;94548.03;;;5.02;100.00
6464;BME280;3265;42.694;23.282;2023-03-04T04:36:42;94550.63;;;5.08;100.00
6464;BME280;3265;42.694;23.282;2023-03-04T04:39:09;94543.72;;;5.09;100.00
6464;BME280;3265;42.694;23.282;2023-03-04T04:41:38;94542.50;;;5.05;100.00
6464;BME280;3265;42.694;23.282;2023-03-04T04:44:07;94543.25;;;4.99;100.00
6464;BME280;3265;42.694;23.282;2023-03-04T04:46:35;94550.72;;;4.94;100.00
6464;BME280;3265;42.694;23.282;2023-03-04T04:49:02;94540.56;;;4.86;100.00
6464;BME280;3265;42.694;23.282;2023-03-04T04:51:29;94552.69;;;4.92;100.00
6464;BME280;3265;42.694;23.282;2023-03-04T04:53:57;94549.38;;;4.77;100.00
6464;BME280;3265;42.694;23.282;2023-03-04T04:56:25;94546.41;;;4.73;100.00
6464;BME280;3265;42.694;23.282;2023-03-04T04:58:52;94556.03;;;4.65;100.00
6464;BME280;3265;42.694;23.282;2023-03-04T05:01:21;94554.28;;;4.72;100.00
6464;BME280;3265;42.694;23.282;2023-03-04T05:03:47;94560.97;;;4.66;100.00
6464;BME280;3265;42.694;23.282;2023-03-04T05:06:18;94565.38;;;4.51;100.00
6464;BME280;3265;42.694;23.282;2023-03-04T05:08:45;94571.31;;;4.51;100.00
6464;BME280;3265;42.694;23.282;2023-03-04T05:11:12;94568.88;;;4.43;100.00
6464;BME280;3265;42.694;23.282;2023-03-04T05:13:39;94566.66;;;4.40;100.00
6464;BME280;3265;42.694;23.282;2023-03-04T05:16:06;94577.47;;;4.36;100.00
6464;BME280;3265;42.694;23.282;2023-03-04T05:18:35;94572.78;;;4.39;100.00
6464;BME280;3265;42.694;23.282;2023-03-04T05:21:02;94573.22;;;4.43;100.00
6464;BME280;3265;42.694;23.282;2023-03-04T05:23:31;94580.56;;;4.46;100.00
6464;BME280;3265;42.694;23.282;2023-03-04T05:25:58;94582.34;;;4.45;100.00
6464;BME280;3265;42.694;23.282;2023-03-04T05:28:25;94586.75;;;4.51;100.00
6464;BME280;3265;42.694;23.282;2023-03-04T05:30:52;94589.53;;;4.50;100.00
6464;BME280;3265;42.694;23.282;2023-03-04T05:33:20;94578.25;;;4.51;100.00
6464;BME280;3265;42.694;23.282;2023-03-04T05:35:48;94590.81;;;4.61;100.00
6464;BME280;3265;42.694;23.282;2023-03-04T05:38:17;94590.09;;;4.67;100.00
6464;BME280;3265;42.694;23.282;2023-03-04T05:40:45;94591.81;;;4.81;100.00
6464;BME280;3265;42.694;23.282;2023-03-04T05:43:12;94582.47;;;4.80;100.00
6464;BME280;3265;42.694;23.282;2023-03-04T05:45:39;94588.88;;;4.84;100.00
6464;BME280;3265;42.694;23.282;2023-03-04T05:48:07;94574.88;;;4.72;100.00
6464;BME280;3265;42.694;23.282;2023-03-04T05:50:34;94594.25;;;4.68;100.00
6464;BME280;3265;42.694;23.282;2023-03-04T05:53:02;94595.00;;;4.62;100.00
6464;BME280;3265;42.694;23.282;2023-03-04T05:55:29;94591.59;;;4.40;100.00
6464;BME280;3265;42.694;23.282;2023-03-04T05:57:56;94599.75;;;4.43;100.00
6464;BME280;3265;42.694;23.282;2023-03-04T06:00:24;94586.44;;;4.40;100.00
6464;BME280;3265;42.694;23.282;2023-03-04T06:02:51;94594.03;;;4.48;100.00
6464;BME280;3265;42.694;23.282;2023-03-04T06:05:18;94615.47;;;4.70;100.00
6464;BME280;3265;42.694;23.282;2023-03-04T06:07:45;94609.22;;;4.79;100.00
6464;BME280;3265;42.694;23.282;2023-03-04T06:10:15;94603.72;;;4.82;100.00
6464;BME280;3265;42.694;23.282;2023-03-04T06:12:42;94608.72;;;4.90;100.00
6464;BME280;3265;42.694;23.282;2023-03-04T06:15:10;94606.59;;;4.93;100.00
6464;BME280;3265;42.694;23.282;2023-03-04T06:17:38;94608.84;;;5.03;100.00
6464;BME280;3265;42.694;23.282;2023-03-04T06:20:05;94615.44;;;5.12;100.00
6464;BME280;3265;42.694;23.282;2023-03-04T06:22:33;94610.00;;;5.22;100.00
6464;BME280;3265;42.694;23.282;2023-03-04T06:25:00;94617.38;;;5.31;100.00
6464;BME280;3265;42.694;23.282;2023-03-04T06:27:28;94615.72;;;5.45;100.00
6464;BME280;3265;42.694;23.282;2023-03-04T06:29:55;94617.72;;;5.49;100.00
6464;BME280;3265;42.694;23.282;2023-03-04T06:32:22;94624.34;;;5.58;100.00
6464;BME280;3265;42.694;23.282;2023-03-04T06:34:49;94597.97;;;5.56;100.00
6464;BME280;3265;42.694;23.282;2023-03-04T06:37:16;94615.38;;;5.82;100.00
6464;BME280;3265;42.694;23.282;2023-03-04T06:39:43;94618.03;;;5.95;100.00
6464;BME280;3265;42.694;23.282;2023-03-04T06:42:10;94627.59;;;6.01;100.00
6464;BME280;3265;42.694;23.282;2023-03-04T06:44:38;94625.25;;;6.06;100.00
6464;BME280;3265;42.694;23.282;2023-03-04T06:47:05;94616.56;;;6.14;100.00
6464;BME280;3265;42.694;23.282;2023-03-04T06:49:32;94628.53;;;6.28;100.00
6464;BME280;3265;42.694;23.282;2023-03-04T06:51:59;94626.38;;;6.38;100.00
6464;BME280;3265;42.694;23.282;2023-03-04T06:54:26;94611.28;;;6.35;100.00
6464;BME280;3265;42.694;23.282;2023-03-04T06:56:53;94631.75;;;6.37;100.00
6464;BME280;3265;42.694;23.282;2023-03-04T06:59:20;94637.06;;;6.28;100.00
6464;BME280;3265;42.694;23.282;2023-03-04T07:01:48;94624.97;;;6.29;100.00
6464;BME280;3265;42.694;23.282;2023-03-04T07:04:15;94635.84;;;6.24;100.00
6464;BME280;3265;42.694;23.282;2023-03-04T07:06:42;94635.72;;;5.98;100.00
6464;BME280;3265;42.694;23.282;2023-03-04T07:09:08;94635.66;;;5.85;100.00
6464;BME280;3265;42.694;23.282;2023-03-04T07:11:35;94633.00;;;5.79;100.00
6464;BME280;3265;42.694;23.282;2023-03-04T07:14:02;94640.44;;;5.67;100.00
6464;BME280;3265;42.694;23.282;2023-03-04T07:16:29;94637.94;;;5.73;100.00
6464;BME280;3265;42.694;23.282;2023-03-04T07:18:57;94632.19;;;5.78;100.00
6464;BME280;3265;42.694;23.282;2023-03-04T07:21:24;94641.75;;;5.84;100.00
6464;BME280;3265;42.694;23.282;2023-03-04T07:23:51;94641.09;;;5.97;100.00
6464;BME280;3265;42.694;23.282;2023-03-04T07:26:18;94639.09;;;5.99;100.00
6464;BME280;3265;42.694;23.282;2023-03-04T07:28:45;94648.44;;;6.00;100.00
6464;BME280;3265;42.694;23.282;2023-03-04T07:31:19;94645.88;;;6.06;100.00
6464;BME280;3265;42.694;23.282;2023-03-04T07:33:46;94643.59;;;6.24;100.00
6464;BME280;3265;42.694;23.282;2023-03-04T07:36:15;94639.53;;;6.50;100.00
6464;BME280;3265;42.694;23.282;2023-03-04T07:38:44;94642.34;;;6.61;100.00
6464;BME280;3265;42.694;23.282;2023-03-04T07:41:12;94641.78;;;6.72;100.00
6464;BME280;3265;42.694;23.282;2023-03-04T07:43:39;94647.59;;;6.88;100.00
6464;BME280;3265;42.694;23.282;2023-03-04T07:46:06;94644.44;;;6.92;100.00
6464;BME280;3265;42.694;23.282;2023-03-04T07:48:34;94639.44;;;6.91;100.00
6464;BME280;3265;42.694;23.282;2023-03-04T07:51:03;94634.09;;;6.99;100.00
6464;BME280;3265;42.694;23.282;2023-03-04T07:53:32;94632.53;;;7.11;100.00
6464;BME280;3265;42.694;23.282;2023-03-04T07:55:59;94640.69;;;7.14;100.00
6464;BME280;3265;42.694;23.282;2023-03-04T07:58:29;94641.28;;;7.03;100.00
6464;BME280;3265;42.694;23.282;2023-03-04T08:00:57;94639.88;;;7.01;100.00
6464;BME280;3265;42.694;23.282;2023-03-04T08:03:24;94632.31;;;6.99;100.00
6464;BME280;3265;42.694;23.282;2023-03-04T08:05:51;94638.31;;;7.13;100.00
6464;BME280;3265;42.694;23.282;2023-03-04T08:08:18;94636.91;;;7.17;100.00
6464;BME280;3265;42.694;23.282;2023-03-04T08:10:46;94640.09;;;7.25;100.00
6464;BME280;3265;42.694;23.282;2023-03-04T08:13:13;94640.91;;;7.39;100.00
6464;BME280;3265;42.694;23.282;2023-03-04T08:15:40;94638.13;;;7.47;100.00
6464;BME280;3265;42.694;23.282;2023-03-04T08:18:07;94634.34;;;7.50;100.00
6464;BME280;3265;42.694;23.282;2023-03-04T08:20:34;94632.34;;;7.45;100.00
6464;BME280;3265;42.694;23.282;2023-03-04T08:23:01;94637.94;;;7.49;100.00
6464;BME280;3265;42.694;23.282;2023-03-04T08:25:28;94642.09;;;7.43;100.00
6464;BME280;3265;42.694;23.282;2023-03-04T08:27:57;94640.91;;;7.46;100.00
6464;BME280;3265;42.694;23.282;2023-03-04T08:30:24;94640.09;;;7.45;100.00
6464;BME280;3265;42.694;23.282;2023-03-04T08:32:51;94633.75;;;7.21;100.00
6464;BME280;3265;42.694;23.282;2023-03-04T08:35:18;94631.50;;;6.99;100.00
6464;BME280;3265;42.694;23.282;2023-03-04T08:37:45;94624.56;;;6.99;100.00
6464;BME280;3265;42.694;23.282;2023-03-04T08:40:13;94631.56;;;7.18;100.00
6464;BME280;3265;42.694;23.282;2023-03-04T08:42:40;94627.59;;;7.29;100.00
6464;BME280;3265;42.694;23.282;2023-03-04T08:45:09;94623.41;;;7.41;100.00
6464;BME280;3265;42.694;23.282;2023-03-04T08:47:37;94635.94;;;7.44;100.00
6464;BME280;3265;42.694;23.282;2023-03-04T08:50:06;94631.16;;;7.34;100.00
6464;BME280;3265;42.694;23.282;2023-03-04T08:52:33;94625.78;;;7.42;100.00
6464;BME280;3265;42.694;23.282;2023-03-04T08:55:00;94630.38;;;7.47;100.00
6464;BME280;3265;42.694;23.282;2023-03-04T08:57:27;94618.03;;;7.49;100.00
6464;BME280;3265;42.694;23.282;2023-03-04T08:59:54;94622.22;;;7.43;100.00
6464;BME280;3265;42.694;23.282;2023-03-04T09:02:22;94631.75;;;7.56;100.00
6464;BME280;3265;42.694;23.282;2023-03-04T09:04:49;94626.41;;;7.64;100.00
6464;BME280;3265;42.694;23.282;2023-03-04T09:07:15;94612.25;;;7.54;100.00
6464;BME280;3265;42.694;23.282;2023-03-04T09:09:42;94615.44;;;7.75;99.42
6464;BME280;3265;42.694;23.282;2023-03-04T09:12:09;94620.78;;;7.93;99.86
6464;BME280;3265;42.694;23.282;2023-03-04T09:14:36;94616.38;;;8.07;99.35
6464;BME280;3265;42.694;23.282;2023-03-04T09:17:06;94606.16;;;8.25;98.54
6464;BME280;3265;42.694;23.282;2023-03-04T09:19:35;94614.22;;;8.62;97.97
6464;BME280;3265;42.694;23.282;2023-03-04T09:22:02;94610.91;;;8.86;97.94
6464;BME280;3265;42.694;23.282;2023-03-04T09:24:29;94612.28;;;8.88;96.92
6464;BME280;3265;42.694;23.282;2023-03-04T09:26:56;94611.91;;;8.85;97.03
6464;BME280;3265;42.694;23.282;2023-03-04T09:29:23;94612.44;;;8.93;95.07
6464;BME280;3265;42.694;23.282;2023-03-04T09:31:50;94611.47;;;8.88;93.34
6464;BME280;3265;42.694;23.282;2023-03-04T09:34:17;94609.88;;;8.87;94.48
6464;BME280;3265;42.694;23.282;2023-03-04T09:36:45;94602.38;;;8.72;95.24
6464;BME280;3265;42.694;23.282;2023-03-04T09:39:12;94603.34;;;8.78;97.29
6464;BME280;3265;42.694;23.282;2023-03-04T09:41:40;94596.38;;;8.78;95.94
6464;BME280;3265;42.694;23.282;2023-03-04T09:44:15;94598.81;;;8.73;96.63
6464;BME280;3265;42.694;23.282;2023-03-04T09:46:47;94607.53;;;8.85;96.66
6464;BME280;3265;42.694;23.282;2023-03-04T09:49:16;94599.78;;;8.79;96.87
6464;BME280;3265;42.694;23.282;2023-03-04T09:51:51;94588.16;;;8.88;96.59
6464;BME280;3265;42.694;23.282;2023-03-04T09:54:29;94593.09;;;8.96;96.44
6464;BME280;3265;42.694;23.282;2023-03-04T09:57:14;94594.00;;;9.08;95.03
6464;BME280;3265;42.694;23.282;2023-03-04T09:59:49;94592.78;;;9.10;95.29
6464;BME280;3265;42.694;23.282;2023-03-04T10:02:24;94588.97;;;9.13;95.66
6464;BME280;3265;42.694;23.282;2023-03-04T10:04:58;94591.56;;;9.13;95.66
6464;BME280;3265;42.694;23.282;2023-03-04T10:07:34;94585.31;;;9.21;95.98
6464;BME280;3265;42.694;23.282;2023-03-04T10:10:04;94578.34;;;9.21;94.62
6464;BME280;3265;42.694;23.282;2023-03-04T10:12:38;94580.91;;;9.28;95.39
6464;BME280;3265;42.694;23.282;2023-03-04T10:15:20;94559.31;;;9.34;96.08
6464;BME280;3265;42.694;23.282;2023-03-04T10:17:51;94569.59;;;9.65;94.28
6464;BME280;3265;42.694;23.282;2023-03-04T10:20:23;94581.03;;;9.82;93.22
6464;BME280;3265;42.694;23.282;2023-03-04T10:22:58;94571.50;;;9.76;91.38
6464;BME280;3265;42.694;23.282;2023-03-04T10:25:34;94570.56;;;9.89;93.09
6464;BME280;3265;42.694;23.282;2023-03-04T10:28:11;94568.91;;;9.94;92.85
6464;BME280;3265;42.694;23.282;2023-03-04T10:30:47;94568.53;;;10.15;92.98
6464;BME280;3265;42.694;23.282;2023-03-04T10:33:17;94568.59;;;10.27;92.49
6464;BME280;3265;42.694;23.282;2023-03-04T10:35:49;94561.63;;;10.39;90.24
6464;BME280;3265;42.694;23.282;2023-03-04T10:38:18;94553.22;;;10.25;90.10
6464;BME280;3265;42.694;23.282;2023-03-04T10:40:45;94544.63;;;10.25;88.76
6464;BME280;3265;42.694;23.282;2023-03-04T10:43:17;94544.41;;;10.08;89.60
6464;BME280;3265;42.694;23.282;2023-03-04T10:45:45;94544.25;;;10.03;89.62
6464;BME280;3265;42.694;23.282;2023-03-04T10:48:21;94538.78;;;9.93;90.20
6464;BME280;3265;42.694;23.282;2023-03-04T10:50:48;94534.44;;;9.87;91.62
6464;BME280;3265;42.694;23.282;2023-03-04T10:53:30;94523.03;;;9.70;92.57
6464;BME280;3265;42.694;23.282;2023-03-04T10:56:01;94526.25;;;9.72;91.62
6464;BME280;3265;42.694;23.282;2023-03-04T10:58:34;94501.88;;;9.55;92.96
6464;BME280;3265;42.694;23.282;2023-03-04T11:01:04;94515.84;;;9.54;93.01
6464;BME280;3265;42.694;23.282;2023-03-04T11:03:33;94517.34;;;9.61;92.73
6464;BME280;3265;42.694;23.282;2023-03-04T11:06:15;94517.72;;;9.65;92.60
6464;BME280;3265;42.694;23.282;2023-03-04T11:08:47;94506.34;;;9.66;93.13
6464;BME280;3265;42.694;23.282;2023-03-04T11:11:23;94502.28;;;9.70;92.44
6464;BME280;3265;42.694;23.282;2023-03-04T11:13:55;94510.00;;;9.77;93.13
6464;BME280;3265;42.694;23.282;2023-03-04T11:16:25;94498.31;;;9.67;92.62
6464;BME280;3265;42.694;23.282;2023-03-04T11:18:54;94492.00;;;9.63;92.89
6464;BME280;3265;42.694;23.282;2023-03-04T11:21:25;94488.38;;;9.64;92.06
6464;BME280;3265;42.694;23.282;2023-03-04T11:23:58;94480.47;;;9.59;93.69
6464;BME280;3265;42.694;23.282;2023-03-04T11:26:30;94472.72;;;9.53;92.97
6464;BME280;3265;42.694;23.282;2023-03-04T11:29:03;94474.75;;;9.51;91.99
6464;BME280;3265;42.694;23.282;2023-03-04T11:31:36;94464.66;;;9.43;92.95
6464;BME280;3265;42.694;23.282;2023-03-04T11:34:10;94470.22;;;9.46;93.62
6464;BME280;3265;42.694;23.282;2023-03-04T11:36:50;94464.63;;;9.49;92.48
6464;BME280;3265;42.694;23.282;2023-03-04T11:39:26;94467.13;;;9.56;93.46
6464;BME280;3265;42.694;23.282;2023-03-04T11:42:00;94464.88;;;9.59;93.41
6464;BME280;3265;42.694;23.282;2023-03-04T11:44:29;94459.63;;;9.48;92.61
6464;BME280;3265;42.694;23.282;2023-03-04T11:47:12;94451.06;;;9.29;92.87
6464;BME280;3265;42.694;23.282;2023-03-04T11:50:05;94455.44;;;9.29;93.53
6464;BME280;3265;42.694;23.282;2023-03-04T11:55:45;94452.50;;;9.43;92.93
6464;BME280;3265;42.694;23.282;2023-03-04T11:58:46;94435.91;;;9.44;92.53
6464;BME280;3265;42.694;23.282;2023-03-04T12:01:19;94438.44;;;9.51;92.33
6464;BME280;3265;42.694;23.282;2023-03-04T12:07:21;94436.28;;;9.48;92.43
6464;BME280;3265;42.694;23.282;2023-03-04T12:10:01;94435.34;;;9.60;92.59
6464;BME280;3265;42.694;23.282;2023-03-04T12:12:50;94433.53;;;9.79;91.97
6464;BME280;3265;42.694;23.282;2023-03-04T12:15:27;94424.25;;;9.72;91.47
6464;BME280;3265;42.694;23.282;2023-03-04T12:18:19;94420.09;;;9.82;91.26
6464;BME280;3265;42.694;23.282;2023-03-04T12:20:54;94420.53;;;9.97;91.29
6464;BME280;3265;42.694;23.282;2023-03-04T12:23:34;94423.81;;;10.04;90.32
6464;BME280;3265;42.694;23.282;2023-03-04T12:29:45;94423.59;;;10.24;90.33
6464;BME280;3265;42.694;23.282;2023-03-04T12:32:20;94409.69;;;10.18;88.79
6464;BME280;3265;42.694;23.282;2023-03-04T12:42:24;94399.81;;;10.39;89.77
6464;BME280;3265;42.694;23.282;2023-03-04T12:45:07;94402.34;;;10.15;87.40
6464;BME280;3265;42.694;23.282;2023-03-04T12:51:29;94379.44;;;9.94;88.67
6464;BME280;3265;42.694;23.282;2023-03-04T12:54:12;94341.53;;;9.63;89.83
6464;BME280;3265;42.694;23.282;2023-03-04T13:05:31;94380.03;;;10.38;90.43
6464;BME280;3265;42.694;23.282;2023-03-04T13:08:09;94373.94;;;10.44;89.23
6464;BME280;3265;42.694;23.282;2023-03-04T13:10:38;94377.34;;;10.44;88.51
6464;BME280;3265;42.694;23.282;2023-03-04T13:13:31;94374.16;;;10.54;88.21
6464;BME280;3265;42.694;23.282;2023-03-04T13:16:02;94364.94;;;10.58;87.89
6464;BME280;3265;42.694;23.282;2023-03-04T13:18:32;94352.72;;;10.58;87.01
6464;BME280;3265;42.694;23.282;2023-03-04T13:21:21;94360.97;;;10.67;86.31
6464;BME280;3265;42.694;23.282;2023-03-04T13:23:49;94356.00;;;10.65;87.56
6464;BME280;3265;42.694;23.282;2023-03-04T13:26:27;94356.78;;;10.66;87.03
6464;BME280;3265;42.694;23.282;2023-03-04T13:29:09;94360.28;;;10.60;87.62
6464;BME280;3265;42.694;23.282;2023-03-04T13:31:57;94357.69;;;10.48;87.81
6464;BME280;3265;42.694;23.282;2023-03-04T13:34:45;94360.16;;;10.43;88.66
6464;BME280;3265;42.694;23.282;2023-03-04T13:37:28;94352.47;;;10.37;88.88
6464;BME280;3265;42.694;23.282;2023-03-04T13:40:28;94352.13;;;10.45;88.23
6464;BME280;3265;42.694;23.282;2023-03-04T13:43:26;94344.22;;;10.40;88.57
6464;BME280;3265;42.694;23.282;2023-03-04T13:45:56;94338.91;;;10.35;87.63
6464;BME280;3265;42.694;23.282;2023-03-04T13:48:30;94343.22;;;10.29;87.41
6464;BME280;3265;42.694;23.282;2023-03-04T13:51:01;94314.44;;;10.01;87.47
6464;BME280;3265;42.694;23.282;2023-03-04T13:53:44;94337.69;;;10.07;88.04
6464;BME280;3265;42.694;23.282;2023-03-04T14:02:10;94329.47;;;9.69;89.69